sensor_id;sensor_type;location;lat;lon;timestamp;pressure;altitude;pressure_sealevel;temperature;humidity
82743;BME280;72483;50.656;7.216;2023-12-22T00:00:18;99599.16;;;18.49;49.94
82743;BME280;72483;50.656;7.216;2023-12-22T00:02:45;99584.41;;;18.48;49.63
82743;BME280;72483;50.656;7.216;2023-12-22T00:05:11;99586.34;;;18.48;49.21
82743;BME280;72483;50.656;7.216;2023-12-22T00:07:39;99594.72;;;18.48;49.82
82743;BME280;72483;50.656;7.216;2023-12-22T00:10:06;99578.31;;;18.46;49.41
82743;BME280;72483;50.656;7.216;2023-12-22T00:12:32;99583.91;;;18.46;49.89
82743;BME280;72483;50.656;7.216;2023-12-22T00:14:59;99577.16;;;18.47;49.87
82743;BME280;72483;50.656;7.216;2023-12-22T00:17:26;99577.72;;;18.49;50.28
82743;BME280;72483;50.656;7.216;2023-12-22T00:19:52;99569.34;;;18.49;49.91
82743;BME280;72483;50.656;7.216;2023-12-22T00:22:20;99562.63;;;18.50;49.86
82743;BME280;72483;50.656;7.216;2023-12-22T00:24:48;99611.53;;;18.56;49.68
82743;BME280;72483;50.656;7.216;2023-12-22T00:27:14;99656.03;;;18.61;49.31
82743;BME280;72483;50.656;7.216;2023-12-22T00:29:41;99703.31;;;18.67;49.43
82743;BME280;72483;50.656;7.216;2023-12-22T00:32:07;99696.16;;;18.74;49.05
82743;BME280;72483;50.656;7.216;2023-12-22T00:34:36;99679.25;;;18.71;48.58
82743;BME280;72483;50.656;7.216;2023-12-22T00:37:03;99683.94;;;18.84;48.31
82743;BME280;72483;50.656;7.216;2023-12-22T00:39:30;99668.97;;;18.80;48.49
82743;BME280;72483;50.656;7.216;2023-12-22T00:41:59;99686.19;;;18.82;48.39
82743;BME280;72483;50.656;7.216;2023-12-22T00:44:26;99687.56;;;18.84;48.09
82743;BME280;72483;50.656;7.216;2023-12-22T00:46:54;99699.34;;;18.81;48.30
82743;BME280;72483;50.656;7.216;2023-12-22T00:49:21;99701.69;;;18.88;47.91
82743;BME280;72483;50.656;7.216;2023-12-22T00:51:47;99719.56;;;18.87;47.67
82743;BME280;72483;50.656;7.216;2023-12-22T00:54:14;99725.09;;;18.78;48.21
82743;BME280;72483;50.656;7.216;2023-12-22T00:56:41;99713.75;;;18.75;48.21
82743;BME280;72483;50.656;7.216;2023-12-22T00:59:08;99703.41;;;18.75;48.18
82743;BME280;72483;50.656;7.216;2023-12-22T01:01:35;99709.59;;;18.72;47.78
82743;BME280;72483;50.656;7.216;2023-12-22T01:04:02;99712.66;;;18.84;48.24
82743;BME280;72483;50.656;7.216;2023-12-22T01:06:28;99710.16;;;18.83;47.51
82743;BME280;72483;50.656;7.216;2023-12-22T01:08:55;99698.81;;;18.79;48.63
82743;BME280;72483;50.656;7.216;2023-12-22T01:11:21;99719.22;;;18.88;47.70
82743;BME280;72483;50.656;7.216;2023-12-22T01:13:48;99714.81;;;18.87;47.58
82743;BME280;72483;50.656;7.216;2023-12-22T01:16:16;99709.88;;;18.84;48.00
82743;BME280;72483;50.656;7.216;2023-12-22T01:18:44;99713.16;;;18.86;47.58
82743;BME280;72483;50.656;7.216;2023-12-22T01:21:11;99711.50;;;18.85;47.79
82743;BME280;72483;50.656;7.216;2023-12-22T01:23:37;99694.50;;;18.95;47.14
82743;BME280;72483;50.656;7.216;2023-12-22T01:26:04;99692.69;;;18.91;47.72
82743;BME280;72483;50.656;7.216;2023-12-22T01:28:30;99692.59;;;18.82;47.55
82743;BME280;72483;50.656;7.216;2023-12-22T01:30:57;99685.44;;;18.90;47.69
82743;BME280;72483;50.656;7.216;2023-12-22T01:33:25;99704.78;;;18.86;47.64
82743;BME280;72483;50.656;7.216;2023-12-22T01:35:51;99729.22;;;18.81;47.85
82743;BME280;72483;50.656;7.216;2023-12-22T01:38:18;99736.75;;;18.80;48.00
82743;BME280;72483;50.656;7.216;2023-12-22T01:40:47;99729.91;;;18.86;47.82
82743;BME280;72483;50.656;7.216;2023-12-22T01:43:14;99732.81;;;18.81;47.54
82743;BME280;72483;50.656;7.216;2023-12-22T01:45:42;99725.41;;;18.77;47.86
82743;BME280;72483;50.656;7.216;2023-12-22T01:48:10;99723.44;;;18.77;47.77
82743;BME280;72483;50.656;7.216;2023-12-22T01:50:38;99722.75;;;18.72;47.89
82743;BME280;72483;50.656;7.216;2023-12-22T01:53:05;99722.75;;;18.72;48.00
82743;BME280;72483;50.656;7.216;2023-12-22T01:55:31;99700.41;;;18.72;48.08
82743;BME280;72483;50.656;7.216;2023-12-22T01:57:59;99703.50;;;18.70;47.57
82743;BME280;72483;50.656;7.216;2023-12-22T02:00:26;99709.88;;;18.62;47.82
82743;BME280;72483;50.656;7.216;2023-12-22T02:02:52;99704.41;;;18.57;48.02
82743;BME280;72483;50.656;7.216;2023-12-22T02:05:19;99701.75;;;18.52;48.57
82743;BME280;72483;50.656;7.216;2023-12-22T02:07:47;99687.31;;;18.50;48.18
82743;BME280;72483;50.656;7.216;2023-12-22T02:10:13;99689.25;;;18.49;48.42
82743;BME280;72483;50.656;7.216;2023-12-22T02:12:40;99700.69;;;18.48;48.25
82743;BME280;72483;50.656;7.216;2023-12-22T02:15:07;99704.09;;;18.45;48.52
82743;BME280;72483;50.656;7.216;2023-12-22T02:17:40;99713.59;;;18.44;48.31
82743;BME280;72483;50.656;7.216;2023-12-22T02:20:09;99714.75;;;18.43;48.05
82743;BME280;72483;50.656;7.216;2023-12-22T02:22:37;99716.22;;;18.40;48.50
82743;BME280;72483;50.656;7.216;2023-12-22T02:25:04;99719.31;;;18.39;48.66
82743;BME280;72483;50.656;7.216;2023-12-22T02:27:34;99715.19;;;18.36;48.33
82743;BME280;72483;50.656;7.216;2023-12-22T02:30:08;99719.09;;;18.35;48.62
82743;BME280;72483;50.656;7.216;2023-12-22T02:32:37;99717.44;;;18.34;48.08
82743;BME280;72483;50.656;7.216;2023-12-22T02:35:09;99706.91;;;18.31;48.23
82743;BME280;72483;50.656;7.216;2023-12-22T02:37:37;99711.69;;;18.31;48.25
82743;BME280;72483;50.656;7.216;2023-12-22T02:40:07;99724.81;;;18.30;48.62
82743;BME280;72483;50.656;7.216;2023-12-22T02:42:35;99709.22;;;18.29;48.59
82743;BME280;72483;50.656;7.216;2023-12-22T02:45:03;99725.44;;;18.27;48.63
82743;BME280;72483;50.656;7.216;2023-12-22T02:47:30;99712.63;;;18.26;48.33
82743;BME280;72483;50.656;7.216;2023-12-22T02:49:57;99707.38;;;18.25;48.44
82743;BME280;72483;50.656;7.216;2023-12-22T02:52:24;99706.56;;;18.24;48.44
82743;BME280;72483;50.656;7.216;2023-12-22T02:54:51;99716.88;;;18.24;48.58
82743;BME280;72483;50.656;7.216;2023-12-22T02:57:18;99707.69;;;18.23;48.82
82743;BME280;72483;50.656;7.216;2023-12-22T02:59:44;99705.19;;;18.22;48.60
82743;BME280;72483;50.656;7.216;2023-12-22T03:02:11;99705.19;;;18.22;48.57
82743;BME280;72483;50.656;7.216;2023-12-22T03:04:37;99695.19;;;18.21;48.78
82743;BME280;72483;50.656;7.216;2023-12-22T03:07:04;99695.19;;;18.21;48.56
82743;BME280;72483;50.656;7.216;2023-12-22T03:09:30;99681.28;;;18.21;48.40
82743;BME280;72483;50.656;7.216;2023-12-22T03:12:00;99705.19;;;18.22;48.29
82743;BME280;72483;50.656;7.216;2023-12-22T03:14:28;99702.75;;;18.20;48.11
82743;BME280;72483;50.656;7.216;2023-12-22T03:16:55;99694.38;;;18.20;48.78
82743;BME280;72483;50.656;7.216;2023-12-22T03:19:21;99692.72;;;18.19;48.82
82743;BME280;72483;50.656;7.216;2023-12-22T03:21:48;99699.94;;;18.20;48.09
82743;BME280;72483;50.656;7.216;2023-12-22T03:24:15;99700.78;;;18.21;48.47
82743;BME280;72483;50.656;7.216;2023-12-22T03:26:42;99690.47;;;18.21;48.70
82743;BME280;72483;50.656;7.216;2023-12-22T03:29:10;99689.09;;;18.19;48.32
82743;BME280;72483;50.656;7.216;2023-12-22T03:31:36;99694.66;;;18.19;48.85
82743;BME280;72483;50.656;7.216;2023-12-22T03:34:03;99677.94;;;18.19;48.76
82743;BME280;72483;50.656;7.216;2023-12-22T03:36:30;99682.72;;;18.18;48.93
82743;BME280;72483;50.656;7.216;2023-12-22T03:38:56;99659.91;;;18.16;48.43
82743;BME280;72483;50.656;7.216;2023-12-22T03:41:22;99670.22;;;18.16;48.26
82743;BME280;72483;50.656;7.216;2023-12-22T03:43:49;99682.19;;;18.16;48.33
82743;BME280;72483;50.656;7.216;2023-12-22T03:46:17;99686.94;;;18.16;48.95
82743;BME280;72483;50.656;7.216;2023-12-22T03:48:44;99688.94;;;18.15;48.48
82743;BME280;72483;50.656;7.216;2023-12-22T03:51:11;99692.84;;;18.14;48.55
82743;BME280;72483;50.656;7.216;2023-12-22T03:53:40;99700.38;;;18.13;48.44
82743;BME280;72483;50.656;7.216;2023-12-22T03:56:07;99695.63;;;18.14;48.64
82743;BME280;72483;50.656;7.216;2023-12-22T03:58:34;99697.91;;;18.12;48.52
82743;BME280;72483;50.656;7.216;2023-12-22T04:01:00;99701.84;;;18.11;48.80
82743;BME280;72483;50.656;7.216;2023-12-22T04:03:28;99712.66;;;18.12;48.44
82743;BME280;72483;50.656;7.216;2023-12-22T04:05:55;99710.19;;;18.11;48.39
82743;BME280;72483;50.656;7.216;2023-12-22T04:08:21;99720.50;;;18.10;48.52
82743;BME280;72483;50.656;7.216;2023-12-22T04:10:48;99722.47;;;18.10;48.79
82743;BME280;72483;50.656;7.216;2023-12-22T04:13:15;99719.38;;;18.11;48.56
82743;BME280;72483;50.656;7.216;2023-12-22T04:15:42;99720.50;;;18.10;48.62
82743;BME280;72483;50.656;7.216;2023-12-22T04:18:09;99724.41;;;18.09;48.36
82743;BME280;72483;50.656;7.216;2023-12-22T04:20:37;99717.53;;;18.07;48.29
82743;BME280;72483;50.656;7.216;2023-12-22T04:23:04;99734.25;;;18.07;48.72
82743;BME280;72483;50.656;7.216;2023-12-22T04:25:30;99729.78;;;18.06;48.85
82743;BME280;72483;50.656;7.216;2023-12-22T04:27:57;99728.66;;;18.07;48.64
82743;BME280;72483;50.656;7.216;2023-12-22T04:30:23;99734.56;;;18.05;48.69
82743;BME280;72483;50.656;7.216;2023-12-22T04:32:51;99727.84;;;18.06;48.82
82743;BME280;72483;50.656;7.216;2023-12-22T04:35:17;99729.28;;;18.04;48.64
82743;BME280;72483;50.656;7.216;2023-12-22T04:37:45;99741.25;;;18.04;48.35
82743;BME280;72483;50.656;7.216;2023-12-22T04:40:12;99723.72;;;18.04;48.29
82743;BME280;72483;50.656;7.216;2023-12-22T04:42:38;99727.63;;;18.03;48.35
82743;BME280;72483;50.656;7.216;2023-12-22T04:45:05;99730.13;;;18.04;48.63
82743;BME280;72483;50.656;7.216;2023-12-22T04:47:32;99721.25;;;18.02;48.34
82743;BME280;72483;50.656;7.216;2023-12-22T04:49:58;99725.16;;;18.01;48.49
82743;BME280;72483;50.656;7.216;2023-12-22T04:52:25;99725.16;;;18.01;48.62
82743;BME280;72483;50.656;7.216;2023-12-22T04:54:53;99725.47;;;18.00;48.47
82743;BME280;72483;50.656;7.216;2023-12-22T04:57:19;99725.47;;;18.00;48.64
82743;BME280;72483;50.656;7.216;2023-12-22T04:59:47;99733.81;;;18.00;48.53
82743;BME280;72483;50.656;7.216;2023-12-22T05:02:13;99734.97;;;17.99;48.39
82743;BME280;72483;50.656;7.216;2023-12-22T05:04:40;99745.59;;;17.97;48.40
82743;BME280;72483;50.656;7.216;2023-12-22T05:07:07;99736.44;;;17.96;48.03
82743;BME280;72483;50.656;7.216;2023-12-22T05:09:36;99744.78;;;17.96;48.57
82743;BME280;72483;50.656;7.216;2023-12-22T05:12:04;99743.97;;;17.96;48.15
82743;BME280;72483;50.656;7.216;2023-12-22T05:14:31;99747.59;;;17.96;48.17
82743;BME280;72483;50.656;7.216;2023-12-22T05:16:57;99752.31;;;17.96;48.35
82743;BME280;72483;50.656;7.216;2023-12-22T05:19:24;99758.09;;;17.99;48.43
82743;BME280;72483;50.656;7.216;2023-12-22T05:21:50;99751.69;;;17.99;48.13
82743;BME280;72483;50.656;7.216;2023-12-22T05:24:21;99757.28;;;17.99;48.33
82743;BME280;72483;50.656;7.216;2023-12-22T05:26:47;99750.53;;;18.00;48.43
82743;BME280;72483;50.656;7.216;2023-12-22T05:29:15;99756.44;;;17.98;47.96
82743;BME280;72483;50.656;7.216;2023-12-22T05:31:41;99754.50;;;17.99;48.04
82743;BME280;72483;50.656;7.216;2023-12-22T05:34:08;99760.91;;;17.99;48.48
82743;BME280;72483;50.656;7.216;2023-12-22T05:36:35;99763.34;;;18.01;48.17
82743;BME280;72483;50.656;7.216;2023-12-22T05:39:02;99751.91;;;18.02;48.13
82743;BME280;72483;50.656;7.216;2023-12-22T05:41:28;99760.28;;;18.02;48.11
82743;BME280;72483;50.656;7.216;2023-12-22T05:43:55;99771.41;;;18.02;48.46
82743;BME280;72483;50.656;7.216;2023-12-22T05:46:23;99775.84;;;18.03;48.13
82743;BME280;72483;50.656;7.216;2023-12-22T05:48:49;99764.06;;;18.06;47.95
82743;BME280;72483;50.656;7.216;2023-12-22T05:51:16;99768.31;;;18.04;48.44
82743;BME280;72483;50.656;7.216;2023-12-22T05:53:42;99773.25;;;18.07;48.34
82743;BME280;72483;50.656;7.216;2023-12-22T05:56:18;99752.28;;;18.09;48.20
82743;BME280;72483;50.656;7.216;2023-12-22T05:58:45;99762.63;;;18.09;48.58
82743;BME280;72483;50.656;7.216;2023-12-22T06:01:14;99780.69;;;18.11;48.02
82743;BME280;72483;50.656;7.216;2023-12-22T06:03:43;99772.00;;;18.13;48.23
82743;BME280;72483;50.656;7.216;2023-12-22T06:06:09;99762.81;;;18.12;48.05
82743;BME280;72483;50.656;7.216;2023-12-22T06:08:36;99761.06;;;18.17;48.45
82743;BME280;72483;50.656;7.216;2023-12-22T06:11:03;99775.50;;;18.19;48.04
82743;BME280;72483;50.656;7.216;2023-12-22T06:13:30;99779.44;;;18.18;48.05
82743;BME280;72483;50.656;7.216;2023-12-22T06:15:56;99779.31;;;18.23;48.22
82743;BME280;72483;50.656;7.216;2023-12-22T06:18:23;99768.19;;;18.23;48.40
82743;BME280;72483;50.656;7.216;2023-12-22T06:20:51;99770.75;;;18.19;48.39
82743;BME280;72483;50.656;7.216;2023-12-22T06:23:18;99771.28;;;18.21;47.72
82743;BME280;72483;50.656;7.216;2023-12-22T06:25:44;99774.56;;;18.23;48.15
82743;BME280;72483;50.656;7.216;2023-12-22T06:28:11;99785.94;;;18.27;48.07
82743;BME280;72483;50.656;7.216;2023-12-22T06:30:38;99781.50;;;18.26;48.10
82743;BME280;72483;50.656;7.216;2023-12-22T06:33:04;99792.63;;;18.26;47.81
82743;BME280;72483;50.656;7.216;2023-12-22T06:35:31;99791.19;;;18.28;48.17
82743;BME280;72483;50.656;7.216;2023-12-22T06:38:03;99806.47;;;18.31;48.19
82743;BME280;72483;50.656;7.216;2023-12-22T06:40:31;99802.25;;;18.33;47.99
82743;BME280;72483;50.656;7.216;2023-12-22T06:42:58;99801.72;;;18.31;47.93
82743;BME280;72483;50.656;7.216;2023-12-22T06:45:24;99799.53;;;18.28;47.85
82743;BME280;72483;50.656;7.216;2023-12-22T06:47:51;99788.94;;;18.30;48.25
82743;BME280;72483;50.656;7.216;2023-12-22T06:50:17;99799.44;;;18.33;47.79
82743;BME280;72483;50.656;7.216;2023-12-22T06:52:44;99797.50;;;18.34;47.70
82743;BME280;72483;50.656;7.216;2023-12-22T06:55:11;99802.75;;;18.35;48.29
82743;BME280;72483;50.656;7.216;2023-12-22T06:57:38;99799.13;;;18.35;47.78
82743;BME280;72483;50.656;7.216;2023-12-22T07:00:05;99806.88;;;18.38;47.91
82743;BME280;72483;50.656;7.216;2023-12-22T07:02:32;99809.16;;;18.36;48.28
82743;BME280;72483;50.656;7.216;2023-12-22T07:05:02;99804.41;;;18.36;47.74
82743;BME280;72483;50.656;7.216;2023-12-22T07:07:32;99818.63;;;18.35;48.32
82743;BME280;72483;50.656;7.216;2023-12-22T07:09:59;99834.75;;;18.38;47.62
82743;BME280;72483;50.656;7.216;2023-12-22T07:12:26;99840.31;;;18.38;48.10
82743;BME280;72483;50.656;7.216;2023-12-22T07:14:53;99823.59;;;18.38;48.24
82743;BME280;72483;50.656;7.216;2023-12-22T07:17:20;99839.81;;;18.36;48.07
82743;BME280;72483;50.656;7.216;2023-12-22T07:19:46;99839.00;;;18.35;48.31
82743;BME280;72483;50.656;7.216;2023-12-22T07:22:13;99810.28;;;18.35;48.50
82743;BME280;72483;50.656;7.216;2023-12-22T07:24:40;99822.25;;;18.35;48.23
82743;BME280;72483;50.656;7.216;2023-12-22T07:27:07;99825.75;;;18.41;48.01
82743;BME280;72483;50.656;7.216;2023-12-22T07:29:34;99833.31;;;18.40;47.72
82743;BME280;72483;50.656;7.216;2023-12-22T07:32:01;99834.44;;;18.39;48.12
82743;BME280;72483;50.656;7.216;2023-12-22T07:34:27;99831.34;;;18.41;48.18
82743;BME280;72483;50.656;7.216;2023-12-22T07:36:54;99822.97;;;18.41;48.29
82743;BME280;72483;50.656;7.216;2023-12-22T07:39:21;99822.66;;;18.42;47.98
82743;BME280;72483;50.656;7.216;2023-12-22T07:41:47;99835.78;;;18.42;48.04
82743;BME280;72483;50.656;7.216;2023-12-22T07:44:14;99839.06;;;18.44;48.03
82743;BME280;72483;50.656;7.216;2023-12-22T07:46:42;99836.28;;;18.44;48.14
82743;BME280;72483;50.656;7.216;2023-12-22T07:49:08;99838.28;;;18.43;48.14
82743;BME280;72483;50.656;7.216;2023-12-22T07:51:35;99823.16;;;18.44;48.22
82743;BME280;72483;50.656;7.216;2023-12-22T07:54:01;99805.09;;;18.42;48.45
82743;BME280;72483;50.656;7.216;2023-12-22T07:56:28;99827.41;;;18.42;48.06
82743;BME280;72483;50.656;7.216;2023-12-22T07:58:54;99815.13;;;18.43;47.98
82743;BME280;72483;50.656;7.216;2023-12-22T08:01:21;99820.72;;;18.43;48.19
82743;BME280;72483;50.656;7.216;2023-12-22T08:03:49;99817.94;;;18.43;48.38
82743;BME280;72483;50.656;7.216;2023-12-22T08:06:15;99822.66;;;18.42;48.40
82743;BME280;72483;50.656;7.216;2023-12-22T08:08:42;99822.34;;;18.44;48.03
82743;BME280;72483;50.656;7.216;2023-12-22T08:11:09;99827.91;;;18.44;48.30
82743;BME280;72483;50.656;7.216;2023-12-22T08:13:35;99826.28;;;18.43;48.16
82743;BME280;72483;50.656;7.216;2023-12-22T08:16:03;99825.47;;;18.42;48.04
82743;BME280;72483;50.656;7.216;2023-12-22T08:18:29;99830.22;;;18.42;47.96
82743;BME280;72483;50.656;7.216;2023-12-22T08:20:57;99817.94;;;18.43;48.51
82743;BME280;72483;50.656;7.216;2023-12-22T08:23:24;99815.13;;;18.43;48.00
82743;BME280;72483;50.656;7.216;2023-12-22T08:25:50;99810.19;;;18.40;48.40
82743;BME280;72483;50.656;7.216;2023-12-22T08:28:17;99815.75;;;18.40;48.51
82743;BME280;72483;50.656;7.216;2023-12-22T08:30:43;99822.97;;;18.41;48.39
82743;BME280;72483;50.656;7.216;2023-12-22T08:33:10;99810.19;;;18.40;48.20
82743;BME280;72483;50.656;7.216;2023-12-22T08:35:36;99820.19;;;18.41;48.64
82743;BME280;72483;50.656;7.216;2023-12-22T08:38:04;99833.63;;;18.39;48.48
82743;BME280;72483;50.656;7.216;2023-12-22T08:40:31;99827.22;;;18.38;48.51
82743;BME280;72483;50.656;7.216;2023-12-22T08:42:57;99824.44;;;18.38;48.73
82743;BME280;72483;50.656;7.216;2023-12-22T08:45:25;99831.47;;;18.36;48.68
82743;BME280;72483;50.656;7.216;2023-12-22T08:47:54;99837.03;;;18.36;48.51
82743;BME280;72483;50.656;7.216;2023-12-22T08:50:20;99837.03;;;18.36;48.74
82743;BME280;72483;50.656;7.216;2023-12-22T08:52:46;99824.22;;;18.35;48.77
82743;BME280;72483;50.656;7.216;2023-12-22T08:55:14;99840.13;;;18.34;48.88
82743;BME280;72483;50.656;7.216;2023-12-22T08:57:41;99829.78;;;18.35;48.84
82743;BME280;72483;50.656;7.216;2023-12-22T09:00:08;99819.81;;;18.34;48.64
82743;BME280;72483;50.656;7.216;2023-12-22T09:02:35;99821.44;;;18.35;48.75
82743;BME280;72483;50.656;7.216;2023-12-22T09:05:01;99822.88;;;18.32;48.60
82743;BME280;72483;50.656;7.216;2023-12-22T09:07:28;99819.47;;;18.35;48.28
82743;BME280;72483;50.656;7.216;2023-12-22T09:09:54;99811.09;;;18.35;48.52
82743;BME280;72483;50.656;7.216;2023-12-22T09:12:22;99813.91;;;18.35;48.54
82743;BME280;72483;50.656;7.216;2023-12-22T09:14:50;99825.06;;;18.35;48.60
82743;BME280;72483;50.656;7.216;2023-12-22T09:17:16;99816.19;;;18.33;48.88
82743;BME280;72483;50.656;7.216;2023-12-22T09:19:43;99824.22;;;18.35;48.92
82743;BME280;72483;50.656;7.216;2023-12-22T09:22:10;99821.44;;;18.35;48.26
82743;BME280;72483;50.656;7.216;2023-12-22T09:24:37;99813.06;;;18.35;48.47
82743;BME280;72483;50.656;7.216;2023-12-22T09:27:04;99819.81;;;18.34;48.67
82743;BME280;72483;50.656;7.216;2023-12-22T09:29:32;99813.06;;;18.35;48.41
82743;BME280;72483;50.656;7.216;2023-12-22T09:32:00;99814.22;;;18.34;48.48
82743;BME280;72483;50.656;7.216;2023-12-22T09:34:27;99820.59;;;18.34;48.71
82743;BME280;72483;50.656;7.216;2023-12-22T09:36:54;99811.44;;;18.34;48.53
82743;BME280;72483;50.656;7.216;2023-12-22T09:39:20;99807.81;;;18.33;48.38
82743;BME280;72483;50.656;7.216;2023-12-22T09:41:48;99805.84;;;18.34;48.67
82743;BME280;72483;50.656;7.216;2023-12-22T09:44:18;99785.19;;;18.35;48.83
82743;BME280;72483;50.656;7.216;2023-12-22T09:46:48;99778.78;;;18.34;48.42
82743;BME280;72483;50.656;7.216;2023-12-22T09:49:15;99783.56;;;18.34;48.50
82743;BME280;72483;50.656;7.216;2023-12-22T09:51:44;99772.41;;;18.34;48.86
82743;BME280;72483;50.656;7.216;2023-12-22T09:54:11;99772.41;;;18.34;48.45
82743;BME280;72483;50.656;7.216;2023-12-22T09:56:39;99774.88;;;18.35;48.52
82743;BME280;72483;50.656;7.216;2023-12-22T09:59:09;99786.34;;;18.34;48.53
82743;BME280;72483;50.656;7.216;2023-12-22T10:01:38;99784.34;;;18.34;48.44
82743;BME280;72483;50.656;7.216;2023-12-22T10:04:07;99785.38;;;18.38;48.81
82743;BME280;72483;50.656;7.216;2023-12-22T10:06:35;99781.69;;;18.43;48.04
82743;BME280;72483;50.656;7.216;2023-12-22T10:09:02;99777.09;;;18.47;48.11
82743;BME280;72483;50.656;7.216;2023-12-22T10:11:31;99783.50;;;18.47;48.43
82743;BME280;72483;50.656;7.216;2023-12-22T10:13:59;99779.59;;;18.48;48.21
82743;BME280;72483;50.656;7.216;2023-12-22T10:16:25;99765.66;;;18.48;48.65
82743;BME280;72483;50.656;7.216;2023-12-22T10:18:52;99758.63;;;18.51;48.73
82743;BME280;72483;50.656;7.216;2023-12-22T10:21:21;99754.72;;;18.52;48.77
82743;BME280;72483;50.656;7.216;2023-12-22T10:23:48;99750.81;;;18.53;49.11
82743;BME280;72483;50.656;7.216;2023-12-22T10:26:14;99742.44;;;18.53;48.99
82743;BME280;72483;50.656;7.216;2023-12-22T10:28:41;99729.28;;;18.53;48.65
82743;BME280;72483;50.656;7.216;2023-12-22T10:31:08;99741.63;;;18.52;49.54
82743;BME280;72483;50.656;7.216;2023-12-22T10:33:35;99746.84;;;18.54;49.45
82743;BME280;72483;50.656;7.216;2023-12-22T10:36:03;99741.81;;;18.56;49.24
82743;BME280;72483;50.656;7.216;2023-12-22T10:38:33;99732.91;;;18.54;49.05
82743;BME280;72483;50.656;7.216;2023-12-22T10:41:01;99730.66;;;18.56;49.09
82743;BME280;72483;50.656;7.216;2023-12-22T10:43:27;99735.69;;;18.54;48.96
82743;BME280;72483;50.656;7.216;2023-12-22T10:45:54;99730.47;;;18.52;48.95
82743;BME280;72483;50.656;7.216;2023-12-22T10:48:21;99727.13;;;18.50;48.62
82743;BME280;72483;50.656;7.216;2023-12-22T10:50:48;99727.41;;;18.27;47.36
82743;BME280;72483;50.656;7.216;2023-12-22T10:53:14;99722.84;;;18.31;48.30
82743;BME280;72483;50.656;7.216;2023-12-22T10:55:42;99728.50;;;18.39;48.85
82743;BME280;72483;50.656;7.216;2023-12-22T10:58:09;99716.59;;;18.47;48.83
82743;BME280;72483;50.656;7.216;2023-12-22T11:00:37;99718.78;;;18.50;49.04
82743;BME280;72483;50.656;7.216;2023-12-22T11:03:07;99719.31;;;18.52;48.98
82743;BME280;72483;50.656;7.216;2023-12-22T11:05:36;99721.75;;;18.54;49.34
82743;BME280;72483;50.656;7.216;2023-12-22T11:08:06;99722.09;;;18.52;49.20
82743;BME280;72483;50.656;7.216;2023-12-22T11:10:35;99713.38;;;18.54;49.90
82743;BME280;72483;50.656;7.216;2023-12-22T11:13:06;99716.19;;;18.54;49.59
82743;BME280;72483;50.656;7.216;2023-12-22T11:15:34;99709.78;;;18.53;49.49
82743;BME280;72483;50.656;7.216;2023-12-22T11:18:03;99709.78;;;18.53;49.45
82743;BME280;72483;50.656;7.216;2023-12-22T11:20:31;99710.09;;;18.52;49.80
82743;BME280;72483;50.656;7.216;2023-12-22T11:22:59;99709.78;;;18.53;49.71
82743;BME280;72483;50.656;7.216;2023-12-22T11:25:26;99700.06;;;18.51;49.61
82743;BME280;72483;50.656;7.216;2023-12-22T11:27:55;99696.66;;;18.54;49.65
82743;BME280;72483;50.656;7.216;2023-12-22T11:30:24;99696.84;;;18.57;48.94
82743;BME280;72483;50.656;7.216;2023-12-22T11:32:53;99694.91;;;18.58;49.20
82743;BME280;72483;50.656;7.216;2023-12-22T11:35:21;99689.94;;;18.55;49.39
82743;BME280;72483;50.656;7.216;2023-12-22T11:37:49;99677.13;;;18.54;49.77
82743;BME280;72483;50.656;7.216;2023-12-22T11:40:16;99688.00;;;18.55;48.95
82743;BME280;72483;50.656;7.216;2023-12-22T11:42:46;99678.78;;;18.55;49.96
82743;BME280;72483;50.656;7.216;2023-12-22T11:45:14;99668.78;;;18.54;49.54
82743;BME280;72483;50.656;7.216;2023-12-22T11:47:43;99672.09;;;18.56;49.17
82743;BME280;72483;50.656;7.216;2023-12-22T11:50:10;99669.78;;;18.58;49.34
82743;BME280;72483;50.656;7.216;2023-12-22T11:52:37;99663.72;;;18.56;49.66
82743;BME280;72483;50.656;7.216;2023-12-22T11:55:04;99654.34;;;18.52;49.79
82743;BME280;72483;50.656;7.216;2023-12-22T11:57:35;99659.28;;;18.55;49.68
82743;BME280;72483;50.656;7.216;2023-12-22T12:00:06;99655.66;;;18.54;49.63
82743;BME280;72483;50.656;7.216;2023-12-22T12:02:34;99673.22;;;18.55;49.53
82743;BME280;72483;50.656;7.216;2023-12-22T12:05:06;99656.50;;;18.55;49.47
82743;BME280;72483;50.656;7.216;2023-12-22T12:07:37;99650.91;;;18.55;49.58
82743;BME280;72483;50.656;7.216;2023-12-22T12:10:05;99655.66;;;18.54;49.58
82743;BME280;72483;50.656;7.216;2023-12-22T12:12:32;99667.63;;;18.55;49.55
82743;BME280;72483;50.656;7.216;2023-12-22T12:15:09;99670.09;;;18.56;49.24
82743;BME280;72483;50.656;7.216;2023-12-22T12:17:40;99682.91;;;18.57;49.22
82743;BME280;72483;50.656;7.216;2023-12-22T12:20:09;99663.09;;;18.59;49.14
82743;BME280;72483;50.656;7.216;2023-12-22T12:22:36;99672.59;;;18.58;49.25
82743;BME280;72483;50.656;7.216;2023-12-22T12:25:08;99668.66;;;18.59;49.16
82743;BME280;72483;50.656;7.216;2023-12-22T12:27:36;99675.88;;;18.60;49.22
82743;BME280;72483;50.656;7.216;2023-12-22T12:30:11;99671.44;;;18.59;48.83
82743;BME280;72483;50.656;7.216;2023-12-22T12:32:40;99661.09;;;18.59;49.11
82743;BME280;72483;50.656;7.216;2023-12-22T12:35:09;99659.97;;;18.60;49.30
82743;BME280;72483;50.656;7.216;2023-12-22T12:37:36;99655.50;;;18.59;49.49
82743;BME280;72483;50.656;7.216;2023-12-22T12:40:07;99662.25;;;18.58;49.09
82743;BME280;72483;50.656;7.216;2023-12-22T12:42:35;99656.16;;;18.56;49.25
82743;BME280;72483;50.656;7.216;2023-12-22T12:45:03;99666.50;;;18.56;48.89
82743;BME280;72483;50.656;7.216;2023-12-22T12:47:30;99662.91;;;18.55;49.43
82743;BME280;72483;50.656;7.216;2023-12-22T12:49:57;99663.72;;;18.56;49.36
82743;BME280;72483;50.656;7.216;2023-12-22T12:52:26;99662.25;;;18.58;49.22
82743;BME280;72483;50.656;7.216;2023-12-22T12:54:53;99650.75;;;18.60;48.70
82743;BME280;72483;50.656;7.216;2023-12-22T12:57:21;99662.75;;;18.60;49.45
82743;BME280;72483;50.656;7.216;2023-12-22T12:59:48;99649.13;;;18.59;49.19